sim
Sign-in with your pilot id or email,
or register
Callsign
Passwort

Schedule Details

Flight Number: RYR2175 (1)
Departure: Dortmund Airport (EDLW) at 17:45
Arrival: Thessaloniki International Airport (LGTS) at 20:30
Route: Ryanair Passenger Schedule. Enter filed route here before submitting Pirep.

Weather Information
Getting current METAR information for EDLW 211620Z 24009KT 9999 SCT037 BKN045 11/05 Q1027
Getting current METAR information for LGTS 211620Z 36006KT CAVOK 14/00 Q1022 NOSIG

Schedule Frequency

Route Map